sensor_id;sensor_type;location;lat;lon;timestamp;pressure;altitude;pressure_sealevel;temperature;humidity
20027;BME280;10174;42.688;23.344;2023-07-22T00:02:05;95221.44;;;24.53;57.52
20027;BME280;10174;42.688;23.344;2023-07-22T00:04:30;95204.16;;;24.36;58.00
20027;BME280;10174;42.688;23.344;2023-07-22T00:06:55;95207.34;;;24.39;57.38
20027;BME280;10174;42.688;23.344;2023-07-22T00:09:21;95168.13;;;24.06;58.05
20027;BME280;10174;42.688;23.344;2023-07-22T00:11:49;95250.03;;;24.52;58.81
20027;BME280;10174;42.688;23.344;2023-07-22T00:14:14;95241.34;;;24.50;58.71
20027;BME280;10174;42.688;23.344;2023-07-22T00:16:39;95219.03;;;24.35;58.95
20027;BME280;10174;42.688;23.344;2023-07-22T00:19:05;95244.25;;;24.41;59.05
20027;BME280;10174;42.688;23.344;2023-07-22T00:21:32;95232.50;;;24.41;59.15
20027;BME280;10174;42.688;23.344;2023-07-22T00:23:57;95228.75;;;24.17;59.13
20027;BME280;10174;42.688;23.344;2023-07-22T00:26:24;95155.94;;;23.59;59.90
20027;BME280;10174;42.688;23.344;2023-07-22T00:28:49;95248.03;;;24.05;60.32
20027;BME280;10174;42.688;23.344;2023-07-22T00:31:15;95217.31;;;23.71;60.94
20027;BME280;10174;42.688;23.344;2023-07-22T00:33:40;95244.31;;;23.69;62.32
20027;BME280;10174;42.688;23.344;2023-07-22T00:36:05;95256.09;;;23.57;63.43
20027;BME280;10174;42.688;23.344;2023-07-22T00:38:31;95238.66;;;23.49;63.43
20027;BME280;10174;42.688;23.344;2023-07-22T00:40:56;95251.44;;;23.45;63.81
20027;BME280;10174;42.688;23.344;2023-07-22T00:43:21;95254.84;;;23.54;63.08
20027;BME280;10174;42.688;23.344;2023-07-22T00:45:47;95168.41;;;23.04;63.92
20027;BME280;10174;42.688;23.344;2023-07-22T00:48:13;95235.94;;;23.37;64.35
20027;BME280;10174;42.688;23.344;2023-07-22T00:50:39;95229.16;;;23.18;65.03
20027;BME280;10174;42.688;23.344;2023-07-22T00:53:05;95258.56;;;23.34;65.00
20027;BME280;10174;42.688;23.344;2023-07-22T00:55:33;95181.38;;;22.79;65.19
20027;BME280;10174;42.688;23.344;2023-07-22T00:57:59;95263.13;;;23.29;65.49
20027;BME280;10174;42.688;23.344;2023-07-22T01:00:25;95258.59;;;23.21;65.49
20027;BME280;10174;42.688;23.344;2023-07-22T01:02:50;95250.81;;;23.23;65.33
20027;BME280;10174;42.688;23.344;2023-07-22T01:05:16;95177.81;;;22.78;65.48
20027;BME280;10174;42.688;23.344;2023-07-22T01:07:42;95232.34;;;23.08;65.74
20027;BME280;10174;42.688;23.344;2023-07-22T01:10:07;95228.25;;;23.14;65.19
20027;BME280;10174;42.688;23.344;2023-07-22T01:12:33;95217.72;;;23.16;64.96
20027;BME280;10174;42.688;23.344;2023-07-22T01:14:59;95201.19;;;23.00;65.39
20027;BME280;10174;42.688;23.344;2023-07-22T01:17:25;95223.31;;;23.07;65.72
20027;BME280;10174;42.688;23.344;2023-07-22T01:19:51;95245.59;;;23.06;66.19
20027;BME280;10174;42.688;23.344;2023-07-22T01:22:18;95231.53;;;22.95;66.26
20027;BME280;10174;42.688;23.344;2023-07-22T01:24:43;95246.75;;;22.92;66.77
20027;BME280;10174;42.688;23.344;2023-07-22T01:27:09;95227.78;;;22.75;67.00
20027;BME280;10174;42.688;23.344;2023-07-22T01:29:35;95200.78;;;22.61;67.34
20027;BME280;10174;42.688;23.344;2023-07-22T01:32:01;95228.94;;;22.86;67.50
20027;BME280;10174;42.688;23.344;2023-07-22T01:34:26;95171.69;;;22.44;68.18
20027;BME280;10174;42.688;23.344;2023-07-22T01:36:52;95177.88;;;22.41;68.61
20027;BME280;10174;42.688;23.344;2023-07-22T01:39:17;95228.72;;;22.67;68.80
20027;BME280;10174;42.688;23.344;2023-07-22T01:41:47;95219.03;;;22.69;68.54
20027;BME280;10174;42.688;23.344;2023-07-22T01:44:13;95122.78;;;21.93;69.05
20027;BME280;10174;42.688;23.344;2023-07-22T01:46:39;95223.84;;;22.60;68.95
20027;BME280;10174;42.688;23.344;2023-07-22T01:49:08;95221.66;;;22.53;69.59
20027;BME280;10174;42.688;23.344;2023-07-22T01:51:35;95218.47;;;22.51;68.99
20027;BME280;10174;42.688;23.344;2023-07-22T01:54:03;95221.78;;;22.57;69.62
20027;BME280;10174;42.688;23.344;2023-07-22T01:56:28;95219.25;;;22.64;69.33
20027;BME280;10174;42.688;23.344;2023-07-22T01:58:53;95196.09;;;22.37;69.69
20027;BME280;10174;42.688;23.344;2023-07-22T02:01:19;95171.34;;;22.21;70.20
20027;BME280;10174;42.688;23.344;2023-07-22T02:03:44;95161.50;;;22.08;70.51
20027;BME280;10174;42.688;23.344;2023-07-22T02:06:10;95141.78;;;21.89;70.58
20027;BME280;10174;42.688;23.344;2023-07-22T02:08:36;95190.56;;;22.12;70.98
20027;BME280;10174;42.688;23.344;2023-07-22T02:11:06;95202.53;;;22.20;71.43
20027;BME280;10174;42.688;23.344;2023-07-22T02:13:33;95209.28;;;22.10;71.79
20027;BME280;10174;42.688;23.344;2023-07-22T02:16:00;95223.41;;;22.12;71.91
20027;BME280;10174;42.688;23.344;2023-07-22T02:18:26;95218.84;;;22.04;72.10
20027;BME280;10174;42.688;23.344;2023-07-22T02:20:52;95174.56;;;21.77;72.27
20027;BME280;10174;42.688;23.344;2023-07-22T02:23:18;95201.47;;;21.87;72.06
20027;BME280;10174;42.688;23.344;2023-07-22T02:25:44;95213.75;;;21.81;72.88
20027;BME280;10174;42.688;23.344;2023-07-22T02:28:09;95232.59;;;21.95;73.19
20027;BME280;10174;42.688;23.344;2023-07-22T02:30:36;95208.28;;;21.81;73.12
20027;BME280;10174;42.688;23.344;2023-07-22T02:33:02;95161.53;;;21.41;73.32
20027;BME280;10174;42.688;23.344;2023-07-22T02:35:28;95229.44;;;21.72;73.73
20027;BME280;10174;42.688;23.344;2023-07-22T02:37:54;95223.19;;;21.72;74.00
20027;BME280;10174;42.688;23.344;2023-07-22T02:40:19;95222.59;;;21.66;74.51
20027;BME280;10174;42.688;23.344;2023-07-22T02:42:45;95218.47;;;21.60;74.57
20027;BME280;10174;42.688;23.344;2023-07-22T02:45:10;95237.88;;;21.67;74.87
20027;BME280;10174;42.688;23.344;2023-07-22T02:47:36;95161.59;;;21.20;75.34
20027;BME280;10174;42.688;23.344;2023-07-22T02:50:02;95231.81;;;21.61;75.46
20027;BME280;10174;42.688;23.344;2023-07-22T02:52:28;95232.31;;;21.55;75.78
20027;BME280;10174;42.688;23.344;2023-07-22T02:57:32;95240.06;;;21.52;76.00
20027;BME280;10174;42.688;23.344;2023-07-22T02:59:57;95233.84;;;21.43;76.29
20027;BME280;10174;42.688;23.344;2023-07-22T03:02:23;95182.13;;;21.26;76.05
20027;BME280;10174;42.688;23.344;2023-07-22T03:04:48;95203.91;;;21.47;75.81
20027;BME280;10174;42.688;23.344;2023-07-22T03:07:13;95219.66;;;21.50;76.01
20027;BME280;10174;42.688;23.344;2023-07-22T03:09:39;95232.59;;;21.62;76.09
20027;BME280;10174;42.688;23.344;2023-07-22T03:12:05;95229.66;;;21.67;76.14
20027;BME280;10174;42.688;23.344;2023-07-22T03:14:30;95234.88;;;21.60;76.02
20027;BME280;10174;42.688;23.344;2023-07-22T03:17:01;95216.19;;;21.62;75.85
20027;BME280;10174;42.688;23.344;2023-07-22T03:19:27;95229.66;;;21.67;76.09
20027;BME280;10174;42.688;23.344;2023-07-22T03:21:52;95218.22;;;21.52;76.78
20027;BME280;10174;42.688;23.344;2023-07-22T03:24:18;95243.41;;;21.58;76.79
20027;BME280;10174;42.688;23.344;2023-07-22T03:26:44;95235.28;;;21.49;77.64
20027;BME280;10174;42.688;23.344;2023-07-22T03:29:09;95222.94;;;21.43;78.13
20027;BME280;10174;42.688;23.344;2023-07-22T03:31:34;95226.31;;;21.40;78.22
20027;BME280;10174;42.688;23.344;2023-07-22T03:34:00;95248.09;;;21.58;77.99
20027;BME280;10174;42.688;23.344;2023-07-22T03:36:25;95258.59;;;21.68;77.70
20027;BME280;10174;42.688;23.344;2023-07-22T03:38:51;95237.38;;;21.65;77.57
20027;BME280;10174;42.688;23.344;2023-07-22T03:41:17;95238.41;;;21.60;77.69
20027;BME280;10174;42.688;23.344;2023-07-22T03:43:42;95253.78;;;21.65;78.17
20027;BME280;10174;42.688;23.344;2023-07-22T03:46:08;95271.78;;;21.66;78.04
20027;BME280;10174;42.688;23.344;2023-07-22T03:48:34;95265.78;;;21.73;77.96
20027;BME280;10174;42.688;23.344;2023-07-22T03:50:59;95215.00;;;21.29;78.50
20027;BME280;10174;42.688;23.344;2023-07-22T03:53:25;95250.47;;;21.59;78.68
20027;BME280;10174;42.688;23.344;2023-07-22T03:55:50;95274.31;;;21.71;79.24
20027;BME280;10174;42.688;23.344;2023-07-22T03:58:16;95287.47;;;21.78;78.99
20027;BME280;10174;42.688;23.344;2023-07-22T04:00:42;95284.84;;;21.81;79.30
20027;BME280;10174;42.688;23.344;2023-07-22T04:03:07;95289.53;;;21.81;79.50
20027;BME280;10174;42.688;23.344;2023-07-22T04:05:32;95257.00;;;21.67;79.54
20027;BME280;10174;42.688;23.344;2023-07-22T04:07:58;95283.28;;;21.93;79.37
20027;BME280;10174;42.688;23.344;2023-07-22T04:10:23;95288.34;;;22.03;78.96
20027;BME280;10174;42.688;23.344;2023-07-22T04:12:48;95260.94;;;21.91;78.98
20027;BME280;10174;42.688;23.344;2023-07-22T04:15:14;95261.47;;;22.05;78.72
20027;BME280;10174;42.688;23.344;2023-07-22T04:17:40;95288.63;;;22.22;78.49
20027;BME280;10174;42.688;23.344;2023-07-22T04:20:06;95286.47;;;22.28;78.75
20027;BME280;10174;42.688;23.344;2023-07-22T04:22:33;95288.22;;;22.33;78.22
20027;BME280;10174;42.688;23.344;2023-07-22T04:24:59;95279.00;;;22.37;78.15
20027;BME280;10174;42.688;23.344;2023-07-22T04:27:26;95289.38;;;22.44;77.94
20027;BME280;10174;42.688;23.344;2023-07-22T04:29:52;95300.31;;;22.44;76.52
20027;BME280;10174;42.688;23.344;2023-07-22T04:32:18;95275.00;;;22.35;75.05
20027;BME280;10174;42.688;23.344;2023-07-22T04:34:43;95305.13;;;22.47;75.91
20027;BME280;10174;42.688;23.344;2023-07-22T04:37:09;95306.16;;;22.55;75.09
20027;BME280;10174;42.688;23.344;2023-07-22T04:39:34;95299.91;;;22.67;74.58
20027;BME280;10174;42.688;23.344;2023-07-22T04:42:00;95290.06;;;22.66;72.82
20027;BME280;10174;42.688;23.344;2023-07-22T04:44:26;95301.50;;;22.68;72.85
20027;BME280;10174;42.688;23.344;2023-07-22T04:46:51;95304.34;;;22.71;72.98
20027;BME280;10174;42.688;23.344;2023-07-22T04:49:17;95314.03;;;22.81;72.71
20027;BME280;10174;42.688;23.344;2023-07-22T04:51:44;95288.94;;;22.79;70.87
20027;BME280;10174;42.688;23.344;2023-07-22T04:54:11;95293.28;;;23.05;70.82
20027;BME280;10174;42.688;23.344;2023-07-22T04:56:36;95296.97;;;23.09;71.94
20027;BME280;10174;42.688;23.344;2023-07-22T04:59:01;95296.03;;;23.05;71.62
20027;BME280;10174;42.688;23.344;2023-07-22T05:01:28;95293.66;;;23.16;70.89
20027;BME280;10174;42.688;23.344;2023-07-22T05:03:53;95274.47;;;23.03;69.47
20027;BME280;10174;42.688;23.344;2023-07-22T05:06:20;95249.25;;;22.85;69.09
20027;BME280;10174;42.688;23.344;2023-07-22T05:08:46;95230.31;;;22.80;68.99
20027;BME280;10174;42.688;23.344;2023-07-22T05:11:11;95319.75;;;23.38;68.79
20027;BME280;10174;42.688;23.344;2023-07-22T05:13:37;95318.72;;;23.30;69.33
20027;BME280;10174;42.688;23.344;2023-07-22T05:16:02;95334.38;;;23.42;69.35
20027;BME280;10174;42.688;23.344;2023-07-22T05:18:28;95313.56;;;23.41;69.54
20027;BME280;10174;42.688;23.344;2023-07-22T05:20:53;95322.16;;;23.52;69.34
20027;BME280;10174;42.688;23.344;2023-07-22T05:23:18;95233.72;;;23.14;69.93
20027;BME280;10174;42.688;23.344;2023-07-22T05:25:44;95313.03;;;23.76;70.28
20027;BME280;10174;42.688;23.344;2023-07-22T05:28:09;95318.06;;;23.86;69.76
20027;BME280;10174;42.688;23.344;2023-07-22T05:30:34;95248.72;;;23.45;69.64
20027;BME280;10174;42.688;23.344;2023-07-22T05:33:00;95320.53;;;23.91;69.68
20027;BME280;10174;42.688;23.344;2023-07-22T05:35:25;95305.97;;;23.87;69.45
20027;BME280;10174;42.688;23.344;2023-07-22T05:37:50;95327.34;;;24.10;68.89
20027;BME280;10174;42.688;23.344;2023-07-22T05:40:16;95324.34;;;24.15;68.60
20027;BME280;10174;42.688;23.344;2023-07-22T05:42:41;95327.72;;;24.24;68.48
20027;BME280;10174;42.688;23.344;2023-07-22T05:45:07;95327.22;;;24.34;68.89
20027;BME280;10174;42.688;23.344;2023-07-22T05:47:32;95302.41;;;24.15;68.26
20027;BME280;10174;42.688;23.344;2023-07-22T05:49:58;95337.25;;;24.43;67.89
20027;BME280;10174;42.688;23.344;2023-07-22T05:52:23;95332.22;;;24.45;68.38
20027;BME280;10174;42.688;23.344;2023-07-22T05:54:49;95308.66;;;24.44;68.55
20027;BME280;10174;42.688;23.344;2023-07-22T05:57:15;95323.91;;;24.57;68.11
20027;BME280;10174;42.688;23.344;2023-07-22T05:59:40;95302.13;;;24.64;66.67
20027;BME280;10174;42.688;23.344;2023-07-22T06:02:07;95322.88;;;24.78;66.77
20027;BME280;10174;42.688;23.344;2023-07-22T06:04:32;95334.22;;;24.92;66.58
20027;BME280;10174;42.688;23.344;2023-07-22T06:06:58;95343.06;;;25.33;65.66
20027;BME280;10174;42.688;23.344;2023-07-22T06:09:23;95344.16;;;25.84;64.00
20027;BME280;10174;42.688;23.344;2023-07-22T06:11:49;95355.16;;;25.84;63.33
20027;BME280;10174;42.688;23.344;2023-07-22T06:14:14;95281.59;;;25.41;62.52
20027;BME280;10174;42.688;23.344;2023-07-22T06:16:40;95333.03;;;26.16;62.70
20027;BME280;10174;42.688;23.344;2023-07-22T06:19:05;95313.59;;;26.47;60.40
20027;BME280;10174;42.688;23.344;2023-07-22T06:21:30;95356.50;;;26.48;61.21
20027;BME280;10174;42.688;23.344;2023-07-22T06:23:56;95359.25;;;26.29;62.71
20027;BME280;10174;42.688;23.344;2023-07-22T06:26:21;95368.66;;;26.28;62.40
20027;BME280;10174;42.688;23.344;2023-07-22T06:28:47;95367.66;;;26.36;62.78
20027;BME280;10174;42.688;23.344;2023-07-22T06:31:12;95369.91;;;26.50;61.68
20027;BME280;10174;42.688;23.344;2023-07-22T06:33:38;95265.19;;;26.46;60.44
20027;BME280;10174;42.688;23.344;2023-07-22T06:36:03;95326.66;;;26.97;60.45
20027;BME280;10174;42.688;23.344;2023-07-22T06:38:29;95370.28;;;26.91;61.45
20027;BME280;10174;42.688;23.344;2023-07-22T06:40:54;95359.66;;;26.70;61.99
20027;BME280;10174;42.688;23.344;2023-07-22T06:43:20;95376.50;;;26.45;63.36
20027;BME280;10174;42.688;23.344;2023-07-22T06:45:45;95372.88;;;26.41;63.65
20027;BME280;10174;42.688;23.344;2023-07-22T06:48:10;95370.25;;;26.68;63.21
20027;BME280;10174;42.688;23.344;2023-07-22T06:50:36;95376.75;;;26.79;62.53
20027;BME280;10174;42.688;23.344;2023-07-22T06:53:01;95335.59;;;26.67;61.41
20027;BME280;10174;42.688;23.344;2023-07-22T06:55:27;95350.66;;;26.73;60.79
20027;BME280;10174;42.688;23.344;2023-07-22T06:57:55;95348.47;;;26.82;61.00
20027;BME280;10174;42.688;23.344;2023-07-22T07:00:21;95309.38;;;26.54;61.18
20027;BME280;10174;42.688;23.344;2023-07-22T07:02:46;95352.44;;;26.85;61.89
20027;BME280;10174;42.688;23.344;2023-07-22T07:05:11;95350.81;;;26.80;62.04
20027;BME280;10174;42.688;23.344;2023-07-22T07:07:38;95276.44;;;26.61;61.16
20027;BME280;10174;42.688;23.344;2023-07-22T07:10:04;95354.66;;;27.26;60.04
20027;BME280;10174;42.688;23.344;2023-07-22T07:12:31;95356.09;;;27.66;58.62
20027;BME280;10174;42.688;23.344;2023-07-22T07:14:56;95347.91;;;27.73;59.17
20027;BME280;10174;42.688;23.344;2023-07-22T07:17:22;95349.72;;;27.88;58.23
20027;BME280;10174;42.688;23.344;2023-07-22T07:19:47;95337.66;;;28.00;57.85
20027;BME280;10174;42.688;23.344;2023-07-22T07:22:13;95331.34;;;27.73;57.35
20027;BME280;10174;42.688;23.344;2023-07-22T07:24:38;95326.38;;;27.82;57.90
20027;BME280;10174;42.688;23.344;2023-07-22T07:27:04;95328.97;;;27.98;57.25
20027;BME280;10174;42.688;23.344;2023-07-22T07:29:29;95343.34;;;28.15;57.05
20027;BME280;10174;42.688;23.344;2023-07-22T07:31:54;95342.97;;;28.50;55.72
20027;BME280;10174;42.688;23.344;2023-07-22T07:34:20;95337.44;;;28.88;53.89
20027;BME280;10174;42.688;23.344;2023-07-22T07:36:45;95341.69;;;28.78;53.98
20027;BME280;10174;42.688;23.344;2023-07-22T07:39:11;95330.88;;;28.62;54.49
20027;BME280;10174;42.688;23.344;2023-07-22T07:41:36;95335.94;;;28.98;53.51
20027;BME280;10174;42.688;23.344;2023-07-22T07:44:03;95262.50;;;28.55;53.89
20027;BME280;10174;42.688;23.344;2023-07-22T07:46:29;95337.03;;;29.30;52.88
20027;BME280;10174;42.688;23.344;2023-07-22T07:48:57;95337.50;;;29.47;51.35
20027;BME280;10174;42.688;23.344;2023-07-22T07:51:25;95340.31;;;29.51;52.16
20027;BME280;10174;42.688;23.344;2023-07-22T07:53:52;95322.97;;;29.09;52.72
20027;BME280;10174;42.688;23.344;2023-07-22T07:56:19;95315.91;;;29.11;52.80
20027;BME280;10174;42.688;23.344;2023-07-22T07:58:50;95323.66;;;29.40;52.78
20027;BME280;10174;42.688;23.344;2023-07-22T08:01:15;95248.28;;;28.53;53.48
20027;BME280;10174;42.688;23.344;2023-07-22T08:03:42;95320.59;;;29.04;53.78
20027;BME280;10174;42.688;23.344;2023-07-22T08:06:09;95274.34;;;29.56;51.05
20027;BME280;10174;42.688;23.344;2023-07-22T08:08:35;95309.97;;;29.68;52.46
20027;BME280;10174;42.688;23.344;2023-07-22T08:11:06;95239.47;;;29.41;51.77
20027;BME280;10174;42.688;23.344;2023-07-22T08:13:33;95284.44;;;30.00;51.33
20027;BME280;10174;42.688;23.344;2023-07-22T08:16:01;95307.19;;;30.60;49.40
20027;BME280;10174;42.688;23.344;2023-07-22T08:18:26;95295.72;;;30.80;48.31
20027;BME280;10174;42.688;23.344;2023-07-22T08:20:52;95252.19;;;30.69;47.30
20027;BME280;10174;42.688;23.344;2023-07-22T08:23:19;95315.09;;;30.58;49.10
20027;BME280;10174;42.688;23.344;2023-07-22T08:25:44;95309.16;;;30.49;49.39
20027;BME280;10174;42.688;23.344;2023-07-22T08:28:09;95287.78;;;30.53;49.07
20027;BME280;10174;42.688;23.344;2023-07-22T08:30:35;95265.22;;;30.69;48.08
20027;BME280;10174;42.688;23.344;2023-07-22T08:33:01;95314.34;;;31.44;47.60
20027;BME280;10174;42.688;23.344;2023-07-22T08:35:26;95313.59;;;31.29;48.77
20027;BME280;10174;42.688;23.344;2023-07-22T08:37:51;95305.63;;;31.53;47.63
20027;BME280;10174;42.688;23.344;2023-07-22T08:40:17;95206.50;;;31.64;45.74
20027;BME280;10174;42.688;23.344;2023-07-22T08:42:45;95287.94;;;32.28;44.66
20027;BME280;10174;42.688;23.344;2023-07-22T08:45:11;95270.28;;;32.63;44.56
20027;BME280;10174;42.688;23.344;2023-07-22T08:47:45;95259.97;;;32.60;44.05
20027;BME280;10174;42.688;23.344;2023-07-22T08:50:19;95277.56;;;33.48;41.94
20027;BME280;10174;42.688;23.344;2023-07-22T08:52:45;95260.28;;;34.87;38.96
20027;BME280;10174;42.688;23.344;2023-07-22T08:55:12;95248.28;;;34.90;38.25
20027;BME280;10174;42.688;23.344;2023-07-22T08:57:39;95269.28;;;36.46;35.85
20027;BME280;10174;42.688;23.344;2023-07-22T09:00:05;95257.28;;;37.32;35.34
20027;BME280;10174;42.688;23.344;2023-07-22T09:02:35;95258.69;;;38.41;32.48
20027;BME280;10174;42.688;23.344;2023-07-22T09:05:02;95253.78;;;38.83;31.88
20027;BME280;10174;42.688;23.344;2023-07-22T09:07:28;95251.53;;;38.91;31.40
20027;BME280;10174;42.688;23.344;2023-07-22T09:09:54;95204.72;;;39.36;30.72
20027;BME280;10174;42.688;23.344;2023-07-22T09:12:21;95240.44;;;42.11;27.31
20027;BME280;10174;42.688;23.344;2023-07-22T09:14:48;95247.78;;;41.25;27.71
20027;BME280;10174;42.688;23.344;2023-07-22T09:17:14;95228.66;;;40.29;29.24
20027;BME280;10174;42.688;23.344;2023-07-22T09:19:40;95223.22;;;41.99;26.90
20027;BME280;10174;42.688;23.344;2023-07-22T09:22:07;95250.19;;;41.54;27.10
20027;BME280;10174;42.688;23.344;2023-07-22T09:24:32;95251.84;;;39.89;28.96
20027;BME280;10174;42.688;23.344;2023-07-22T09:26:58;95197.22;;;38.72;30.06
20027;BME280;10174;42.688;23.344;2023-07-22T09:31:59;95228.16;;;38.30;30.91
20027;BME280;10174;42.688;23.344;2023-07-22T09:34:24;95231.16;;;39.00;30.08
20027;BME280;10174;42.688;23.344;2023-07-22T09:36:55;95225.75;;;39.53;29.69
20027;BME280;10174;42.688;23.344;2023-07-22T09:39:22;95231.28;;;40.46;29.41
20027;BME280;10174;42.688;23.344;2023-07-22T09:41:48;95161.84;;;41.02;27.51
20027;BME280;10174;42.688;23.344;2023-07-22T09:44:14;95230.09;;;40.34;28.46
20027;BME280;10174;42.688;23.344;2023-07-22T09:46:39;95223.22;;;41.99;26.80
20027;BME280;10174;42.688;23.344;2023-07-22T09:49:07;95176.25;;;40.94;27.65
20027;BME280;10174;42.688;23.344;2023-07-22T09:51:38;95187.69;;;40.50;28.30
20027;BME280;10174;42.688;23.344;2023-07-22T09:54:05;95174.97;;;42.07;25.84
20027;BME280;10174;42.688;23.344;2023-07-22T09:56:31;95186.47;;;41.38;26.79
20027;BME280;10174;42.688;23.344;2023-07-22T09:58:59;95196.06;;;40.41;27.62
20027;BME280;10174;42.688;23.344;2023-07-22T10:01:25;95208.91;;;39.53;28.36
20027;BME280;10174;42.688;23.344;2023-07-22T10:03:54;95192.19;;;39.28;28.21
20027;BME280;10174;42.688;23.344;2023-07-22T10:06:27;95201.31;;;39.41;28.21
20027;BME280;10174;42.688;23.344;2023-07-22T10:08:55;95211.81;;;40.07;27.97
20027;BME280;10174;42.688;23.344;2023-07-22T10:11:25;95203.97;;;39.23;28.81
20027;BME280;10174;42.688;23.344;2023-07-22T10:13:53;95208.91;;;39.98;28.34
20027;BME280;10174;42.688;23.344;2023-07-22T10:16:18;95200.06;;;39.07;28.64
20027;BME280;10174;42.688;23.344;2023-07-22T10:18:45;95213.47;;;38.77;28.33
20027;BME280;10174;42.688;23.344;2023-07-22T10:21:12;95196.47;;;39.19;27.94
20027;BME280;10174;42.688;23.344;2023-07-22T10:23:38;95165.22;;;39.52;27.95
20027;BME280;10174;42.688;23.344;2023-07-22T10:26:05;95179.81;;;39.47;27.65
20027;BME280;10174;42.688;23.344;2023-07-22T10:28:31;95195.56;;;39.58;27.67
20027;BME280;10174;42.688;23.344;2023-07-22T10:30:57;95179.22;;;41.00;26.20
20027;BME280;10174;42.688;23.344;2023-07-22T10:33:24;95186.91;;;42.87;24.37
20027;BME280;10174;42.688;23.344;2023-07-22T10:36:13;95197.50;;;42.25;24.52
20027;BME280;10174;42.688;23.344;2023-07-22T10:38:39;95201.06;;;41.74;24.53
20027;BME280;10174;42.688;23.344;2023-07-22T10:41:15;95176.09;;;41.17;25.54
20027;BME280;10174;42.688;23.344;2023-07-22T10:43:55;95111.25;;;40.11;25.43
20027;BME280;10174;42.688;23.344;2023-07-22T10:49:08;95159.00;;;40.02;25.51
20027;BME280;10174;42.688;23.344;2023-07-22T10:51:36;95162.34;;;40.19;24.85
20027;BME280;10174;42.688;23.344;2023-07-22T10:54:02;95175.09;;;40.42;24.65
20027;BME280;10174;42.688;23.344;2023-07-22T10:56:28;95153.50;;;40.30;24.89
20027;BME280;10174;42.688;23.344;2023-07-22T11:14:27;95161.59;;;40.18;25.44
20027;BME280;10174;42.688;23.344;2023-07-22T11:16:54;95152.41;;;40.68;24.99
20027;BME280;10174;42.688;23.344;2023-07-22T11:19:23;95134.44;;;39.49;25.63
20027;BME280;10174;42.688;23.344;2023-07-22T11:21:50;95155.03;;;39.11;26.42
20027;BME280;10174;42.688;23.344;2023-07-22T11:24:16;95118.25;;;38.96;26.09
20027;BME280;10174;42.688;23.344;2023-07-22T11:26:42;95108.38;;;39.48;26.06
20027;BME280;10174;42.688;23.344;2023-07-22T11:29:08;95143.50;;;40.29;24.83
20027;BME280;10174;42.688;23.344;2023-07-22T11:31:36;95126.13;;;40.21;24.73
20027;BME280;10174;42.688;23.344;2023-07-22T11:34:22;95140.56;;;38.26;27.05
20027;BME280;10174;42.688;23.344;2023-07-22T11:36:50;95131.69;;;38.40;27.83
20027;BME280;10174;42.688;23.344;2023-07-22T11:39:18;95129.91;;;37.66;28.41
20027;BME280;10174;42.688;23.344;2023-07-22T11:41:44;95129.13;;;38.07;27.98
20027;BME280;10174;42.688;23.344;2023-07-22T11:44:12;95057.31;;;37.03;28.24
20027;BME280;10174;42.688;23.344;2023-07-22T11:47:05;95106.50;;;36.88;28.67
20027;BME280;10174;42.688;23.344;2023-07-22T11:49:37;95060.81;;;36.45;29.28
20027;BME280;10174;42.688;23.344;2023-07-22T11:54:32;95122.22;;;36.82;29.19
20027;BME280;10174;42.688;23.344;2023-07-22T11:57:15;95113.31;;;36.54;29.80
20027;BME280;10174;42.688;23.344;2023-07-22T12:02:18;95040.28;;;35.86;30.23
20027;BME280;10174;42.688;23.344;2023-07-22T12:05:03;95127.59;;;36.07;29.80
20027;BME280;10174;42.688;23.344;2023-07-22T12:07:33;95120.44;;;36.22;30.06
20027;BME280;10174;42.688;23.344;2023-07-22T12:10:03;95124.16;;;36.52;29.67
20027;BME280;10174;42.688;23.344;2023-07-22T12:12:44;95100.56;;;36.36;30.25
20027;BME280;10174;42.688;23.344;2023-07-22T12:15:16;95116.53;;;36.69;30.80
20027;BME280;10174;42.688;23.344;2023-07-22T12:17:45;95106.03;;;36.24;30.93
20027;BME280;10174;42.688;23.344;2023-07-22T12:20:11;95096.34;;;36.78;30.06
20027;BME280;10174;42.688;23.344;2023-07-22T12:22:36;95109.13;;;36.62;30.14
20027;BME280;10174;42.688;23.344;2023-07-22T12:25:02;95099.41;;;36.50;30.67
20027;BME280;10174;42.688;23.344;2023-07-22T12:27:28;95104.56;;;36.68;29.98
20027;BME280;10174;42.688;23.344;2023-07-22T12:29:53;95101.75;;;36.85;30.17
20027;BME280;10174;42.688;23.344;2023-07-22T12:32:18;95095.72;;;36.86;29.94
20027;BME280;10174;42.688;23.344;2023-07-22T12:34:44;95095.22;;;36.26;30.47
20027;BME280;10174;42.688;23.344;2023-07-22T12:37:09;95096.50;;;36.05;31.13
20027;BME280;10174;42.688;23.344;2023-07-22T12:39:35;95095.19;;;36.09;30.98
20027;BME280;10174;42.688;23.344;2023-07-22T12:42:00;95086.03;;;36.09;31.26
20027;BME280;10174;42.688;23.344;2023-07-22T12:44:26;95031.47;;;36.04;30.48
20027;BME280;10174;42.688;23.344;2023-07-22T12:46:51;95089.00;;;36.51;30.64
20027;BME280;10174;42.688;23.344;2023-07-22T12:49:18;95085.19;;;36.45;30.16
20027;BME280;10174;42.688;23.344;2023-07-22T12:51:44;95064.47;;;36.09;31.12
20027;BME280;10174;42.688;23.344;2023-07-22T12:54:09;95096.09;;;36.23;31.29
20027;BME280;10174;42.688;23.344;2023-07-22T12:56:35;95070.59;;;36.04;30.62
20027;BME280;10174;42.688;23.344;2023-07-22T12:59:00;95084.09;;;36.22;29.88
20027;BME280;10174;42.688;23.344;2023-07-22T13:01:25;95059.16;;;36.15;29.79
20027;BME280;10174;42.688;23.344;2023-07-22T13:03:51;95053.78;;;36.20;29.72
20027;BME280;10174;42.688;23.344;2023-07-22T13:06:16;95072.69;;;36.16;30.14
20027;BME280;10174;42.688;23.344;2023-07-22T13:08:41;95062.09;;;36.08;30.25
20027;BME280;10174;42.688;23.344;2023-07-22T13:11:07;95061.59;;;36.46;29.71
20027;BME280;10174;42.688;23.344;2023-07-22T13:13:32;95063.66;;;36.58;29.36
20027;BME280;10174;42.688;23.344;2023-07-22T13:15:57;95053.66;;;36.28;29.53